Time;durP1;ratioP1;P1;durP2;ratioP2;P2;SDS_P1;SDS_P2;PMS_P1;PMS_P2;Temp;Humidity;BMP_temperature;BMP_pressure;BME280_temperature;BME280_humidity;BME280_pressure;Samples;Min_cycle;Max_cycle;Signal;HPM_P1;HPM_P2
2022/09/20 00:01:28;;;;;;;11.57;2.47;;;7.90;99.90;;;;;;4812274;29;20125;-94
2022/09/20 00:03:56;;;;;;;8.82;2.92;;;7.80;99.90;;;;;;4803001;29;20042;-94
2022/09/20 00:06:25;;;;;;;12.55;2.83;;;7.80;99.90;;;;;;4804289;29;20061;-95
2022/09/20 00:08:51;;;;;;;10.65;2.45;;;7.90;99.90;;;;;;4802610;29;20066;-95
2022/09/20 00:11:26;;;;;;;14.40;2.17;;;7.90;99.90;;;;;;4808251;29;20053;-94
2022/09/20 00:13:55;;;;;;;11.63;2.78;;;7.90;99.90;;;;;;4801859;29;20053;-93
2022/09/20 00:16:24;;;;;;;7.55;1.90;;;7.80;99.90;;;;;;4818589;29;20042;-93
2022/09/20 00:18:52;;;;;;;7.22;2.47;;;7.80;99.90;;;;;;4835136;29;20070;-94
2022/09/20 00:21:21;;;;;;;9.38;2.22;;;7.80;99.90;;;;;;4809665;29;20044;-94
2022/09/20 00:23:47;;;;;;;12.60;2.53;;;7.80;99.90;;;;;;4810083;29;20046;-95
2022/09/20 00:26:13;;;;;;;8.30;2.38;;;7.70;99.90;;;;;;4803211;29;20042;-93
2022/09/20 00:28:40;;;;;;;14.30;2.95;;;7.70;99.90;;;;;;4809367;29;20449;-94
2022/09/20 00:31:06;;;;;;;11.05;2.30;;;8.40;99.90;;;;;;4804051;29;20129;-94
2022/09/20 00:36:26;;;;;;;13.95;2.63;;;7.80;99.90;;;;;;4804956;29;20054;-94
2022/09/20 00:39:02;;;;;;;13.55;2.88;;;7.70;99.90;;;;;;4788101;29;20043;-94
2022/09/20 00:41:30;;;;;;;9.63;2.38;;;7.70;99.90;;;;;;4805609;29;20043;-93
2022/09/20 00:43:56;;;;;;;7.50;2.10;;;7.70;99.90;;;;;;4827411;29;20058;-92
2022/09/20 00:46:28;;;;;;;11.00;2.25;;;7.60;99.90;;;;;;4804372;29;20046;-94
2022/09/20 00:48:59;;;;;;;12.27;2.60;;;7.60;99.90;;;;;;4810088;29;20133;-94
2022/09/20 00:51:30;;;;;;;11.93;2.80;;;7.50;99.90;;;;;;4830623;29;20061;-95
2022/09/20 00:53:59;;;;;;;9.50;2.28;;;7.50;99.90;;;;;;4837664;29;20050;-93
2022/09/20 00:56:40;;;;;;;10.70;3.30;;;7.50;99.90;;;;;;4808854;29;20042;-94
2022/09/20 00:59:15;;;;;;;9.27;2.17;;;7.50;99.90;;;;;;4824025;29;20057;-94
2022/09/20 01:01:42;;;;;;;10.68;2.58;;;7.50;99.90;;;;;;4801138;29;20076;-94
2022/09/20 01:04:09;;;;;;;11.00;2.38;;;7.50;99.90;;;;;;4825077;29;20045;-95
2022/09/20 01:06:35;;;;;;;14.05;2.95;;;7.50;99.90;;;;;;4841538;29;20053;-93
2022/09/20 01:09:04;;;;;;;11.75;2.75;;;7.50;99.90;;;;;;4801477;29;20050;-93
2022/09/20 01:11:30;;;;;;;7.40;2.13;;;7.50;99.90;;;;;;4805808;29;20065;-93
2022/09/20 01:13:56;;;;;;;9.18;2.42;;;7.40;99.90;;;;;;4800063;29;20079;-95
2022/09/20 01:16:23;;;;;;;9.10;2.30;;;7.40;99.90;;;;;;4813455;29;20045;-94
2022/09/20 01:18:50;;;;;;;8.68;2.10;;;7.40;99.90;;;;;;4790524;29;20051;-95
2022/09/20 01:21:18;;;;;;;8.40;2.25;;;7.30;99.90;;;;;;4786887;29;20046;-94
2022/09/20 01:24:02;;;;;;;7.30;2.17;;;7.40;99.90;;;;;;4819689;29;20054;-94
2022/09/20 01:26:43;;;;;;;12.20;2.28;;;7.40;99.90;;;;;;4810791;29;20123;-93
2022/09/20 01:29:14;;;;;;;12.48;2.42;;;7.30;99.90;;;;;;4803829;29;20046;-93
2022/09/20 01:31:48;;;;;;;10.25;2.15;;;7.20;99.90;;;;;;4822550;29;20050;-94
2022/09/20 01:34:16;;;;;;;;;;;7.20;99.90;;;;;;4828526;29;20041;-95
2022/09/20 01:37:01;;;;;;;9.35;2.40;;;7.10;99.90;;;;;;4822892;29;19984;-94
2022/09/20 01:39:47;;;;;;;8.88;2.22;;;7.00;99.90;;;;;;4810710;29;20050;-94
2022/09/20 01:42:13;;;;;;;8.30;1.90;;;7.00;99.90;;;;;;4817999;29;20076;-94
2022/09/20 01:45:00;;;;;;;12.52;2.67;;;7.00;99.90;;;;;;4832951;29;20072;-94
2022/09/20 01:47:52;;;;;;;11.70;2.63;;;6.90;99.90;;;;;;4817788;29;20051;-93
2022/09/20 01:50:21;;;;;;;12.30;2.50;;;6.90;99.90;;;;;;4798370;29;20436;-96
2022/09/20 01:53:10;;;;;;;11.93;2.80;;;6.90;99.90;;;;;;4824832;29;20050;-95
2022/09/20 01:55:47;;;;;;;8.45;2.15;;;6.90;99.90;;;;;;4798381;29;20054;-95
2022/09/20 01:58:32;;;;;;;10.35;2.47;;;6.90;99.90;;;;;;4801986;29;20065;-95
2022/09/20 02:01:13;;;;;;;10.02;2.28;;;6.80;99.90;;;;;;4816976;29;20083;-94
2022/09/20 02:03:51;;;;;;;6.75;1.83;;;6.70;99.90;;;;;;4820469;29;20113;-93
2022/09/20 02:06:29;;;;;;;11.70;2.60;;;6.70;99.90;;;;;;4829164;29;20078;-93
2022/09/20 02:09:27;;;;;;;5.38;1.80;;;6.60;99.90;;;;;;4801200;29;20050;-94
2022/09/20 02:12:30;;;;;;;12.45;2.50;;;6.60;99.90;;;;;;4808337;29;20065;-94
2022/09/20 02:15:00;;;;;;;9.80;2.60;;;6.60;99.90;;;;;;4817944;29;20126;-93
2022/09/20 02:17:31;;;;;;;10.35;2.13;;;6.60;99.90;;;;;;4816209;29;20042;-94
2022/09/20 02:20:35;;;;;;;10.63;2.83;;;6.60;99.90;;;;;;4818026;29;20558;-95
2022/09/20 02:23:07;;;;;;;10.77;2.30;;;6.60;99.90;;;;;;4791855;29;20410;-95
2022/09/20 02:25:44;;;;;;;7.25;2.00;;;6.50;99.90;;;;;;4801424;29;20417;-94
2022/09/20 02:28:48;;;;;;;8.55;2.22;;;6.50;99.90;;;;;;4817655;29;20052;-93
2022/09/20 02:31:33;;;;;;;6.25;2.00;;;6.40;99.90;;;;;;4815160;29;20125;-93
2022/09/20 02:34:10;;;;;;;10.88;2.33;;;6.30;99.90;;;;;;4815416;29;20553;-93
2022/09/20 02:36:45;;;;;;;8.60;2.65;;;6.40;99.90;;;;;;4818063;29;20065;-95
2022/09/20 02:39:34;;;;;;;11.35;2.58;;;6.40;99.90;;;;;;4819528;29;20507;-94
2022/09/20 02:42:30;;;;;;;11.38;2.72;;;6.50;99.90;;;;;;4802977;29;20133;-95
2022/09/20 02:45:08;;;;;;;10.35;2.50;;;6.50;99.90;;;;;;4808187;29;20130;-94
2022/09/20 02:47:38;;;;;;;10.55;2.50;;;6.60;99.90;;;;;;4815531;29;20054;-95
2022/09/20 02:50:13;;;;;;;13.35;2.33;;;6.50;99.90;;;;;;4801787;29;20050;-94
2022/09/20 02:52:58;;;;;;;11.15;2.88;;;6.50;99.90;;;;;;4816857;29;20054;-92
2022/09/20 02:55:52;;;;;;;8.82;2.40;;;6.60;99.90;;;;;;4821051;29;20044;-96
2022/09/20 02:58:27;;;;;;;7.05;2.20;;;6.60;99.90;;;;;;4792457;29;20047;-95
2022/09/20 03:01:14;;;;;;;7.63;2.50;;;6.60;99.90;;;;;;4818956;29;20137;-93
2022/09/20 03:04:07;;;;;;;9.80;2.45;;;6.60;99.90;;;;;;4830527;29;20088;-93
2022/09/20 03:06:49;;;;;;;10.38;2.33;;;6.60;99.90;;;;;;4814033;29;20053;-93
2022/09/20 03:09:24;;;;;;;8.57;2.25;;;6.60;99.90;;;;;;4809018;29;20122;-93
2022/09/20 03:12:03;;;;;;;9.77;2.13;;;6.60;99.90;;;;;;4821026;29;20076;-94
2022/09/20 03:14:41;;;;;;;10.63;2.00;;;6.60;99.90;;;;;;4808308;29;20106;-94
2022/09/20 03:17:28;;;;;;;6.40;1.75;;;6.60;99.90;;;;;;4804752;29;20074;-93
2022/09/20 03:20:19;;;;;;;11.18;2.20;;;6.60;99.90;;;;;;4805521;29;20415;-92
2022/09/20 03:23:09;;;;;;;10.10;2.30;;;6.50;99.90;;;;;;4806867;29;20129;-93
2022/09/20 03:25:57;;;;;;;7.40;2.10;;;6.40;99.90;;;;;;4818586;29;20092;-93
2022/09/20 03:28:44;;;;;;;7.55;2.03;;;6.40;99.90;;;;;;4798376;29;20046;-94
2022/09/20 03:31:22;;;;;;;6.90;2.20;;;6.40;99.90;;;;;;4842745;29;20079;-94
2022/09/20 03:34:09;;;;;;;8.95;2.00;;;6.30;99.90;;;;;;4815103;29;20058;-94
2022/09/20 03:37:11;;;;;;;10.13;2.22;;;6.30;99.90;;;;;;4822791;29;20121;-94
2022/09/20 03:40:29;;;;;;;9.38;2.22;;;6.20;99.90;;;;;;4819380;29;20092;-93
2022/09/20 03:43:08;;;;;;;8.35;2.35;;;6.20;99.90;;;;;;4785467;29;20050;-95
2022/09/20 03:45:55;;;;;;;9.10;2.85;;;6.80;99.90;;;;;;4830930;29;20090;-94
2022/09/20 03:48:45;;;;;;;12.30;2.35;;;6.30;99.90;;;;;;4802837;29;20050;-93
2022/09/20 03:51:32;;;;;;;10.95;2.20;;;6.30;99.90;;;;;;4819094;29;20115;-94
2022/09/20 03:54:30;;;;;;;11.20;2.35;;;6.40;99.90;;;;;;4813740;29;20051;-93
2022/09/20 03:57:10;;;;;;;9.27;2.30;;;6.40;99.90;;;;;;4818697;29;20046;-93
2022/09/20 03:59:39;;;;;;;7.82;2.30;;;6.50;99.90;;;;;;4812906;29;20050;-94
2022/09/20 04:02:16;;;;;;;13.98;2.53;;;6.50;99.90;;;;;;4805466;29;20043;-93
2022/09/20 04:04:54;;;;;;;9.32;2.17;;;6.60;99.90;;;;;;4798604;29;20124;-94
2022/09/20 04:07:50;;;;;;;12.15;2.60;;;6.70;99.90;;;;;;4813860;29;20064;-91
2022/09/20 04:10:39;;;;;;;9.18;2.22;;;6.80;99.90;;;;;;4801409;29;20046;-93
2022/09/20 04:13:31;;;;;;;7.55;2.28;;;6.80;99.90;;;;;;4814982;29;20051;-93
2022/09/20 04:16:03;;;;;;;8.30;2.08;;;6.90;99.90;;;;;;4801692;29;20054;-93
2022/09/20 04:18:51;;;;;;;6.72;2.13;;;6.90;99.90;;;;;;4817879;29;20055;-94
2022/09/20 04:21:38;;;;;;;7.53;2.30;;;7.00;99.90;;;;;;4800495;29;20042;-94
2022/09/20 04:24:22;;;;;;;12.27;2.50;;;7.10;99.90;;;;;;4801677;29;20047;-92
2022/09/20 04:26:55;;;;;;;11.57;2.20;;;7.10;99.90;;;;;;4816081;29;20054;-93
2022/09/20 04:29:50;;;;;;;7.88;2.20;;;7.20;99.90;;;;;;4806906;29;20089;-93
2022/09/20 04:32:38;;;;;;;8.18;2.25;;;7.20;99.90;;;;;;4816949;29;20134;-93
2022/09/20 04:38:21;;;;;;;9.55;2.13;;;7.30;99.90;;;;;;4835232;29;20047;-94
2022/09/20 04:41:17;;;;;;;8.50;2.08;;;7.30;99.90;;;;;;4807314;29;20110;-93
2022/09/20 04:44:11;;;;;;;8.95;2.20;;;7.40;99.90;;;;;;4808745;29;20050;-93
2022/09/20 04:47:20;;;;;;;5.82;1.92;;;7.40;99.90;;;;;;4813666;29;20101;-93
2022/09/20 04:49:58;;;;;;;8.63;2.03;;;7.40;99.90;;;;;;4818407;29;20053;-94
2022/09/20 04:52:38;;;;;;;8.43;1.92;;;7.50;99.90;;;;;;4807833;29;20111;-93
2022/09/20 04:55:34;;;;;;;9.75;2.00;;;7.50;99.90;;;;;;4815841;29;20043;-94
2022/09/20 04:58:24;;;;;;;9.77;2.20;;;7.50;99.90;;;;;;4813641;29;20054;-93
2022/09/20 05:01:18;;;;;;;7.20;2.35;;;7.40;99.90;;;;;;4801506;29;20059;-93
2022/09/20 05:04:03;;;;;;;6.53;2.05;;;7.40;99.90;;;;;;4814705;29;20049;-94
2022/09/20 05:06:37;;;;;;;9.27;2.25;;;7.40;99.90;;;;;;4801479;29;20065;-92
2022/09/20 05:09:22;;;;;;;11.05;2.60;;;7.40;99.90;;;;;;4806187;29;20078;-93
2022/09/20 05:12:09;;;;;;;8.25;2.67;;;7.50;99.90;;;;;;4815883;29;20043;-93
2022/09/20 05:14:58;;;;;;;7.35;2.17;;;7.40;99.90;;;;;;4800285;29;20063;-94
2022/09/20 05:17:55;;;;;;;7.32;2.10;;;7.50;99.90;;;;;;4800981;29;20187;-94
2022/09/20 05:20:58;;;;;;;13.15;2.63;;;7.50;99.90;;;;;;4802654;29;20142;-94
2022/09/20 05:23:29;;;;;;;9.18;2.22;;;7.50;99.90;;;;;;4813462;29;20452;-93
2022/09/20 05:26:15;;;;;;;9.02;2.28;;;7.60;99.90;;;;;;4831354;29;20043;-92
2022/09/20 05:29:05;;;;;;;8.30;1.90;;;7.60;99.90;;;;;;4831652;29;20043;-92
2022/09/20 05:31:39;;;;;;;7.82;2.00;;;7.70;99.90;;;;;;4815361;29;20070;-93
2022/09/20 05:34:28;;;;;;;9.07;2.35;;;7.80;99.90;;;;;;4798774;29;20043;-92
2022/09/20 05:37:29;;;;;;;10.27;2.03;;;7.80;99.90;;;;;;4801232;29;20138;-93
2022/09/20 05:40:14;;;;;;;7.65;2.03;;;7.90;99.90;;;;;;4830284;29;20046;-93
2022/09/20 05:43:28;;;;;;;6.35;2.30;;;8.00;99.90;;;;;;4796336;29;20054;-92
2022/09/20 05:46:20;;;;;;;8.55;2.00;;;8.10;99.90;;;;;;4820187;29;20060;-93
2022/09/20 05:49:11;;;;;;;5.30;2.10;;;8.10;99.90;;;;;;4811618;29;20055;-93
2022/09/20 05:51:46;;;;;;;8.85;2.10;;;8.10;99.90;;;;;;4796050;29;20051;-94
2022/09/20 05:54:14;;;;;;;7.03;2.10;;;8.20;99.90;;;;;;4807393;29;20050;-94
2022/09/20 05:57:14;;;;;;;8.10;1.80;;;8.20;99.90;;;;;;4807494;29;20057;-92
2022/09/20 06:00:01;;;;;;;10.60;1.90;;;8.40;99.90;;;;;;4812707;29;20142;-93
2022/09/20 06:02:39;;;;;;;8.95;2.10;;;8.30;99.90;;;;;;4812236;29;20039;-94
2022/09/20 06:05:15;;;;;;;7.85;2.00;;;8.40;99.90;;;;;;4798799;29;20080;-94
2022/09/20 06:08:17;;;;;;;6.55;2.13;;;8.40;99.90;;;;;;4797598;29;20094;-94
2022/09/20 06:11:11;;;;;;;5.90;1.88;;;8.40;99.90;;;;;;4796666;29;20058;-92
2022/09/20 06:14:02;;;;;;;9.20;2.42;;;8.40;99.90;;;;;;4809275;29;20058;-92
2022/09/20 06:16:40;;;;;;;9.40;2.20;;;8.40;99.90;;;;;;4799452;29;20587;-93
2022/09/20 06:19:18;;;;;;;7.85;2.10;;;8.40;99.90;;;;;;4799391;29;20416;-94
2022/09/20 06:21:50;;;;;;;7.43;2.03;;;8.40;99.90;;;;;;4808851;29;20601;-95
2022/09/20 06:24:49;;;;;;;6.78;2.17;;;8.50;99.90;;;;;;4805123;29;20043;-93
2022/09/20 06:27:22;;;;;;;7.88;2.40;;;8.50;99.90;;;;;;4818516;29;20134;-93
2022/09/20 06:29:57;;;;;;;9.88;2.03;;;8.50;99.90;;;;;;4828013;29;20109;-94
2022/09/20 06:32:23;;;;;;;7.43;2.30;;;8.60;99.90;;;;;;4820805;29;20089;-94
2022/09/20 06:34:49;;;;;;;7.35;2.40;;;8.70;99.90;;;;;;4786730;29;20046;-94
2022/09/20 06:42:59;;;;;;;9.50;2.42;;;9.00;99.90;;;;;;4816052;29;20047;-95
2022/09/20 06:45:25;;;;;;;12.68;2.85;;;9.20;99.90;;;;;;4801437;29;20066;-92
2022/09/20 06:47:51;;;;;;;8.98;2.50;;;9.30;99.90;;;;;;4804856;29;20110;-94
2022/09/20 06:50:18;;;;;;;9.65;2.60;;;9.40;99.90;;;;;;4802922;29;20053;-93
2022/09/20 06:52:45;;;;;;;9.82;2.30;;;9.50;99.90;;;;;;4800913;29;20179;-93
2022/09/20 06:55:20;;;;;;;12.60;2.35;;;9.50;99.90;;;;;;4791071;29;20078;-93
2022/09/20 06:57:46;;;;;;;7.85;2.15;;;9.60;99.90;;;;;;4799751;29;20070;-95
2022/09/20 07:00:15;;;;;;;7.15;2.35;;;9.70;99.90;;;;;;4797982;29;20602;-94
2022/09/20 07:02:44;;;;;;;9.07;2.33;;;9.70;99.90;;;;;;4809217;29;20085;-94
2022/09/20 07:05:14;;;;;;;8.65;2.92;;;9.80;99.90;;;;;;4768839;29;20050;-95
2022/09/20 07:07:40;;;;;;;12.13;2.92;;;9.80;99.90;;;;;;4803119;29;20047;-94
2022/09/20 07:10:06;;;;;;;8.57;2.25;;;9.80;99.90;;;;;;4783953;29;20046;-94
2022/09/20 07:12:33;;;;;;;7.95;1.90;;;9.90;99.90;;;;;;4783600;29;20050;-95
2022/09/20 07:14:59;;;;;;;7.80;1.85;;;9.90;99.90;;;;;;4811031;29;20047;-94
2022/09/20 07:17:26;;;;;;;10.50;2.00;;;10.00;99.90;;;;;;4783563;29;20077;-94
2022/09/20 07:19:52;;;;;;;6.22;1.70;;;10.00;99.90;;;;;;4784701;29;20035;-94
2022/09/20 07:22:18;;;;;;;10.98;2.05;;;10.10;99.90;;;;;;4798210;29;20074;-93
2022/09/20 07:24:43;;;;;;;7.20;2.22;;;10.10;99.90;;;;;;4784844;29;20083;-94
2022/09/20 07:27:10;;;;;;;12.23;2.25;;;10.20;99.90;;;;;;4799987;29;20057;-96
2022/09/20 07:29:36;;;;;;;6.68;1.67;;;10.20;99.90;;;;;;4806142;29;20055;-94
2022/09/20 07:32:02;;;;;;;6.65;1.95;;;10.30;99.90;;;;;;4799307;29;20051;-95
2022/09/20 07:34:30;;;;;;;7.03;1.90;;;10.40;99.90;;;;;;4798535;29;20126;-93
2022/09/20 07:36:58;;;;;;;8.43;2.03;;;10.40;99.90;;;;;;4784694;29;20043;-94
2022/09/20 07:39:24;;;;;;;11.05;2.30;;;10.40;99.90;;;;;;4800831;29;20055;-95
2022/09/20 07:41:50;;;;;;;7.88;1.90;;;10.50;99.90;;;;;;4800200;29;20579;-94
2022/09/20 07:44:23;;;;;;;6.63;1.90;;;10.50;99.90;;;;;;4806913;29;20051;-94
2022/09/20 07:46:54;;;;;;;9.88;2.20;;;10.50;99.90;;;;;;4810434;29;20455;-94
2022/09/20 07:49:20;;;;;;;5.93;1.88;;;10.50;99.90;;;;;;4802311;29;20078;-95
2022/09/20 07:51:47;;;;;;;7.15;1.90;;;10.50;99.90;;;;;;4801638;29;20439;-93
2022/09/20 07:54:14;;;;;;;6.57;2.25;;;10.50;99.90;;;;;;4805029;29;20070;-94
2022/09/20 07:56:40;;;;;;;9.65;2.17;;;10.50;99.90;;;;;;4822438;29;20055;-95
2022/09/20 07:59:06;;;;;;;6.05;1.38;;;10.50;99.90;;;;;;4833292;29;20060;-94
2022/09/20 08:01:32;;;;;;;9.43;1.98;;;10.50;99.90;;;;;;4807441;29;20454;-94
2022/09/20 08:03:58;;;;;;;7.60;1.73;;;10.70;99.90;;;;;;4828185;29;20114;-95
2022/09/20 08:06:25;;;;;;;8.98;2.10;;;10.80;99.90;;;;;;4811734;29;20046;-94
2022/09/20 08:08:51;;;;;;;8.30;1.70;;;10.80;99.90;;;;;;4815146;29;20057;-95
2022/09/20 08:11:27;;;;;;;9.40;1.80;;;11.00;99.90;;;;;;4811513;29;20058;-96
2022/09/20 08:13:54;;;;;;;7.03;1.70;;;11.10;99.90;;;;;;4807953;29;20119;-94
2022/09/20 08:16:20;;;;;;;9.38;2.13;;;11.10;99.90;;;;;;4820110;29;20051;-95
2022/09/20 08:18:54;;;;;;;8.95;1.60;;;11.20;99.90;;;;;;4813364;29;20050;-95
2022/09/20 08:21:20;;;;;;;6.93;1.63;;;11.30;99.90;;;;;;4832200;29;20148;-94
2022/09/20 08:23:49;;;;;;;5.68;1.60;;;11.40;99.90;;;;;;4826301;29;20042;-94
2022/09/20 08:26:18;;;;;;;12.10;3.58;;;11.40;99.90;;;;;;4819630;29;20542;-95
2022/09/20 08:28:45;;;;;;;6.85;2.00;;;11.50;99.90;;;;;;4803404;29;20531;-96
2022/09/20 08:31:13;;;;;;;12.23;2.10;;;11.50;99.90;;;;;;4802632;29;20069;-94
2022/09/20 08:33:40;;;;;;;7.38;1.85;;;11.50;99.90;;;;;;4817873;29;20050;-95
2022/09/20 08:36:10;;;;;;;11.63;2.20;;;11.60;99.90;;;;;;4826204;29;20102;-94
2022/09/20 08:38:36;;;;;;;10.13;2.13;;;11.60;99.90;;;;;;4811618;29;20072;-94
2022/09/20 08:41:20;;;;;;;9.48;1.98;;;11.80;99.90;;;;;;4802506;29;20043;-93
2022/09/20 08:43:54;;;;;;;6.00;1.90;;;11.90;99.90;;;;;;4810036;29;20067;-94
2022/09/20 08:46:25;;;;;;;7.85;2.00;;;11.90;99.90;;;;;;4803594;29;20458;-92
2022/09/20 08:48:51;;;;;;;6.10;1.75;;;11.90;99.90;;;;;;4808144;29;20131;-92
2022/09/20 08:51:18;;;;;;;4.60;1.40;;;12.00;99.90;;;;;;4808245;29;20046;-94
2022/09/20 08:53:51;;;;;;;13.07;1.95;;;12.10;99.90;;;;;;4787203;29;20074;-92
2022/09/20 08:56:18;;;;;;;7.72;1.80;;;12.20;99.90;;;;;;4820478;29;20192;-93
2022/09/20 08:58:46;;;;;;;9.00;1.98;;;12.40;99.90;;;;;;4800982;29;20473;-94
2022/09/20 09:01:23;;;;;;;9.52;2.13;;;12.60;99.90;;;;;;4800288;29;20051;-93
2022/09/20 09:03:50;;;;;;;7.18;1.70;;;12.70;99.90;;;;;;4789321;29;20058;-94
2022/09/20 09:06:19;;;;;;;7.00;1.60;;;12.90;99.90;;;;;;4789087;29;20085;-94
2022/09/20 09:08:52;;;;;;;9.05;1.80;;;13.10;99.90;;;;;;4801928;29;20129;-94
2022/09/20 09:11:20;;;;;;;4.28;1.35;;;13.10;99.90;;;;;;4814547;29;20050;-94
2022/09/20 09:13:57;;;;;;;6.72;1.58;;;13.10;99.90;;;;;;4808055;29;20530;-92
2022/09/20 09:16:26;;;;;;;4.72;1.10;;;13.10;99.90;;;;;;4800097;29;20504;-93
2022/09/20 09:18:54;;;;;;;10.02;2.33;;;13.00;99.90;;;;;;4813830;29;20047;-93
2022/09/20 09:21:23;;;;;;;4.53;1.45;;;12.90;99.90;;;;;;4801213;29;20043;-94
2022/09/20 09:24:04;;;;;;;5.95;1.40;;;12.90;99.90;;;;;;4814371;29;20042;-94
2022/09/20 09:26:38;;;;;;;7.28;1.33;;;13.00;99.90;;;;;;4800778;29;20115;-93
2022/09/20 09:29:18;;;;;;;6.30;1.50;;;13.10;99.90;;;;;;4816554;29;20090;-93
2022/09/20 09:31:47;;;;;;;6.95;1.50;;;13.20;99.90;;;;;;4816363;29;20058;-94
2022/09/20 09:34:37;;;;;;;6.85;1.40;;;13.40;99.90;;;;;;4801423;29;20047;-94
2022/09/20 09:37:03;;;;;;;7.90;1.60;;;13.50;99.90;;;;;;4814652;29;20051;-93
2022/09/20 09:39:36;;;;;;;5.13;1.60;;;13.50;99.90;;;;;;4786350;29;20057;-93
2022/09/20 09:42:25;;;;;;;4.45;1.20;;;13.60;99.90;;;;;;4786013;29;20070;-94
2022/09/20 09:44:51;;;;;;;6.70;1.52;;;13.70;99.90;;;;;;4806830;29;20054;-93
2022/09/20 09:47:28;;;;;;;4.40;1.27;;;13.80;99.90;;;;;;4800784;29;20054;-93
2022/09/20 09:49:58;;;;;;;6.15;1.30;;;14.00;99.90;;;;;;4804647;29;20051;-95
2022/09/20 09:52:26;;;;;;;4.82;1.38;;;14.20;99.90;;;;;;4838637;29;20055;-93
2022/09/20 09:54:58;;;;;;;7.63;1.38;;;14.50;99.90;;;;;;4796543;30;20047;-94
2022/09/20 09:58:03;;;;;;;5.50;1.85;;;14.70;99.90;;;;;;4783186;29;20569;-93
2022/09/20 10:00:30;;;;;;;6.50;1.58;;;14.80;99.90;;;;;;4808626;29;20057;-93
2022/09/20 10:03:27;;;;;;;4.20;1.30;;;14.80;99.90;;;;;;4826202;29;20062;-93
2022/09/20 10:06:03;;;;;;;5.72;1.17;;;14.80;99.90;;;;;;4815494;29;20076;-93
2022/09/20 10:08:38;;;;;;;8.07;1.35;;;14.80;99.90;;;;;;4820422;29;20046;-94
2022/09/20 10:11:41;;;;;;;5.18;1.27;;;14.80;99.90;;;;;;4814651;29;20054;-92
2022/09/20 10:14:29;;;;;;;6.55;1.85;;;14.70;99.90;;;;;;4794600;29;20093;-93
2022/09/20 10:17:39;;;;;;;7.15;1.65;;;14.70;99.90;;;;;;4818774;29;20507;-92
2022/09/20 10:20:26;;;;;;;7.15;1.70;;;14.60;99.90;;;;;;4765655;30;20210;-95
2022/09/20 10:23:09;;;;;;;4.63;1.60;;;14.50;99.20;;;;;;4805802;29;20052;-93
2022/09/20 10:26:03;;;;;;;6.95;1.55;;;14.50;99.10;;;;;;4813227;29;20080;-95
2022/09/20 10:28:50;;;;;;;11.80;2.00;;;14.50;99.70;;;;;;4809774;29;20055;-93
2022/09/20 10:31:31;;;;;;;9.40;1.50;;;14.40;99.90;;;;;;4815248;29;20051;-93
2022/09/20 10:34:23;;;;;;;10.95;1.80;;;14.40;99.90;;;;;;4799770;29;20490;-93
2022/09/20 10:37:00;;;;;;;9.13;1.40;;;14.50;99.90;;;;;;4807217;29;20138;-93
2022/09/20 10:39:42;;;;;;;8.18;1.88;;;14.60;99.90;;;;;;4800410;29;20055;-93
2022/09/20 10:45:49;;;;;;;7.47;1.73;;;14.90;99.90;;;;;;4817558;29;20058;-92
2022/09/20 10:48:31;;;;;;;6.72;1.70;;;14.90;99.90;;;;;;4799124;29;20050;-95
2022/09/20 10:51:02;;;;;;;10.23;1.85;;;14.90;99.90;;;;;;4800134;29;20061;-93
2022/09/20 10:53:46;;;;;;;6.20;1.65;;;14.90;99.80;;;;;;4815136;29;20043;-94
2022/09/20 10:56:18;;;;;;;;;;;14.90;99.80;;;;;;4822291;29;20412;-94
2022/09/20 10:59:05;;;;;;;7.82;1.70;;;14.90;99.90;;;;;;4815710;29;19925;-93
2022/09/20 11:01:56;;;;;;;5.93;1.42;;;14.90;99.90;;;;;;4827198;29;20129;-94
2022/09/20 11:04:41;;;;;;;7.50;1.60;;;14.90;99.90;;;;;;4799427;29;20043;-94
2022/09/20 11:07:38;;;;;;;7.95;2.38;;;15.00;99.90;;;;;;4808605;29;20051;-94
2022/09/20 11:10:24;;;;;;;7.18;2.13;;;15.00;99.90;;;;;;4795187;29;20580;-93
2022/09/20 11:13:04;;;;;;;7.95;1.80;;;15.10;99.90;;;;;;4827018;29;20058;-94
2022/09/20 11:15:45;;;;;;;7.05;1.88;;;15.10;99.90;;;;;;4829740;29;20046;-95
2022/09/20 11:18:23;;;;;;;6.28;1.65;;;15.10;99.90;;;;;;4814446;29;20054;-93
2022/09/20 11:21:19;;;;;;;10.38;1.42;;;15.20;99.90;;;;;;4815450;29;20114;-94
2022/09/20 11:24:18;;;;;;;7.90;1.60;;;15.20;99.00;;;;;;4814898;29;20082;-93
2022/09/20 11:26:55;;;;;;;8.50;1.90;;;15.20;99.40;;;;;;4803601;29;20055;-94
2022/09/20 11:29:31;;;;;;;8.63;1.73;;;15.10;98.40;;;;;;4814333;29;20046;-92
2022/09/20 11:32:06;;;;;;;8.80;1.70;;;15.10;98.30;;;;;;4816144;29;20046;-95
2022/09/20 11:34:38;;;;;;;7.40;1.58;;;15.10;97.30;;;;;;4809821;29;20047;-93
2022/09/20 11:37:04;;;;;;;7.10;1.40;;;15.00;97.00;;;;;;4793082;29;20047;-94
2022/09/20 11:39:55;;;;;;;5.60;1.50;;;15.00;97.10;;;;;;4790600;29;20056;-93
2022/09/20 11:42:26;;;;;;;7.03;1.63;;;14.90;97.60;;;;;;4819689;29;20054;-96
2022/09/20 11:44:53;;;;;;;7.72;1.80;;;14.90;97.00;;;;;;4810553;29;20066;-94
2022/09/20 11:47:25;;;;;;;5.57;1.40;;;14.90;96.80;;;;;;4809798;29;20051;-95
2022/09/20 11:49:59;;;;;;;4.63;1.25;;;14.90;95.90;;;;;;4809961;29;20053;-93
2022/09/20 11:52:33;;;;;;;9.43;2.10;;;15.00;95.60;;;;;;4793749;29;20078;-95
2022/09/20 11:55:19;;;;;;;5.57;1.42;;;15.20;94.90;;;;;;4802268;29;20054;-95
2022/09/20 11:57:45;;;;;;;6.68;1.48;;;15.50;94.70;;;;;;4799791;29;20050;-94
2022/09/20 12:00:11;;;;;;;9.15;1.50;;;15.80;94.00;;;;;;4783803;29;20059;-95
2022/09/20 12:02:37;;;;;;;6.38;1.45;;;16.10;93.90;;;;;;4788132;29;20058;-93
2022/09/20 12:05:05;;;;;;;4.80;1.13;;;16.30;92.60;;;;;;4802665;29;20042;-96
2022/09/20 12:07:37;;;;;;;6.82;1.42;;;16.40;90.50;;;;;;4808126;29;20055;-95
2022/09/20 12:10:21;;;;;;;5.90;1.30;;;16.30;90.90;;;;;;4821605;29;20050;-95
2022/09/20 12:12:53;;;;;;;4.75;1.30;;;16.20;91.60;;;;;;4807675;29;20042;-95
2022/09/20 12:15:41;;;;;;;9.45;1.80;;;16.30;91.10;;;;;;4815116;29;20053;-95
2022/09/20 12:18:57;;;;;;;8.13;1.70;;;16.50;91.20;;;;;;4820398;29;20129;-96
2022/09/20 12:21:23;;;;;;;7.45;1.38;;;16.70;91.50;;;;;;4765650;29;20075;-96
2022/09/20 12:23:51;;;;;;;6.35;1.40;;;17.00;91.10;;;;;;4820604;29;20057;-95
2022/09/20 12:26:20;;;;;;;4.78;1.45;;;17.20;90.30;;;;;;4807740;29;20047;-93
2022/09/20 12:29:23;;;;;;;7.57;1.40;;;17.20;91.50;;;;;;4801309;29;20053;-93
2022/09/20 12:31:55;;;;;;;6.22;1.52;;;17.00;91.80;;;;;;4817016;29;20507;-94
2022/09/20 12:34:21;;;;;;;4.40;1.50;;;16.80;91.50;;;;;;4804432;29;20660;-96
2022/09/20 12:36:52;;;;;;;10.68;1.52;;;16.60;91.90;;;;;;4803080;29;20050;-94
2022/09/20 12:39:26;;;;;;;5.40;1.50;;;16.50;91.90;;;;;;4807614;29;20050;-95
2022/09/20 12:41:59;;;;;;;;;;;16.30;92.50;;;;;;4807349;29;20055;-94
2022/09/20 12:44:36;;;;;;;5.55;1.38;;;16.40;93.40;;;;;;4802040;29;20019;-94
2022/09/20 12:47:10;;;;;;;7.57;1.38;;;16.40;93.10;;;;;;4823842;29;20058;-94
2022/09/20 12:52:56;;;;;;;4.55;1.23;;;16.40;94.30;;;;;;4819967;29;20057;-95
2022/09/20 12:55:48;;;;;;;7.38;1.70;;;16.50;93.30;;;;;;4800586;29;20097;-96
2022/09/20 12:58:52;;;;;;;6.57;1.48;;;16.70;93.70;;;;;;4811273;29;20043;-95
2022/09/20 13:01:17;;;;;;;6.20;1.33;;;16.90;92.30;;;;;;4815912;29;20054;-96
2022/09/20 13:03:47;;;;;;;7.85;1.75;;;16.90;92.50;;;;;;4815908;29;20049;-93
2022/09/20 13:06:14;;;;;;;7.03;1.30;;;17.00;92.40;;;;;;4832137;29;20043;-94
2022/09/20 13:08:48;;;;;;;5.88;1.33;;;17.20;91.90;;;;;;4802820;29;20106;-95
2022/09/20 13:11:19;;;;;;;5.38;1.30;;;17.30;91.30;;;;;;4813866;29;20103;-96
2022/09/20 13:14:27;;;;;;;7.32;1.33;;;17.40;91.00;;;;;;4820078;29;20050;-96
2022/09/20 13:17:00;;;;;;;5.10;0.95;;;17.40;89.00;;;;;;4759418;29;20047;-96
2022/09/20 13:19:37;;;;;;;4.53;1.20;;;17.50;90.60;;;;;;4833278;29;20183;-95
2022/09/20 13:22:17;;;;;;;5.78;1.20;;;17.40;91.10;;;;;;4800535;29;20142;-96
2022/09/20 13:24:51;;;;;;;4.70;1.27;;;17.40;91.20;;;;;;4817828;29;20050;-93
2022/09/20 13:27:36;;;;;;;6.72;1.40;;;17.40;90.60;;;;;;4814515;29;20046;-95
2022/09/20 13:30:20;;;;;;;5.53;1.10;;;17.20;91.20;;;;;;4820098;29;20069;-95
2022/09/20 13:32:53;;;;;;;5.25;1.30;;;17.30;90.50;;;;;;4813268;29;20062;-94
2022/09/20 13:35:31;;;;;;;4.65;1.20;;;17.10;91.10;;;;;;4786454;29;20043;-95
2022/09/20 13:38:05;;;;;;;5.82;1.30;;;16.80;91.40;;;;;;4808851;29;20050;-96
2022/09/20 13:40:43;;;;;;;8.90;2.78;;;16.50;91.90;;;;;;4809279;29;20050;-96
2022/09/20 13:43:32;;;;;;;8.95;1.50;;;16.40;92.40;;;;;;4803134;29;20059;-96
2022/09/20 13:46:05;;;;;;;8.65;1.58;;;16.30;93.20;;;;;;4783605;30;20497;-94
2022/09/20 13:48:31;;;;;;;5.70;1.45;;;16.30;93.60;;;;;;4798682;29;20047;-95
2022/09/20 13:50:57;;;;;;;7.65;1.70;;;16.40;93.30;;;;;;4783681;30;20073;-95
2022/09/20 13:53:27;;;;;;;9.07;2.28;;;16.60;93.10;;;;;;4781554;30;20072;-95
2022/09/20 13:55:54;;;;;;;7.00;1.38;;;16.70;93.00;;;;;;4783468;30;20052;-95
2022/09/20 13:58:24;;;;;;;7.18;1.30;;;16.80;93.00;;;;;;4799848;29;20055;-95
2022/09/20 14:00:59;;;;;;;8.30;1.33;;;16.70;93.10;;;;;;4788176;30;20043;-95
2022/09/20 14:03:29;;;;;;;5.75;1.58;;;16.70;93.30;;;;;;4780532;30;20044;-96